createdAt,value
2023-06-26T00:02:07.475Z,23.27
2023-06-26T00:04:33.416Z,23.31
2023-06-26T00:06:59.273Z,23.26
2023-06-26T00:09:25.614Z,23.29
2023-06-26T00:11:52.728Z,23.28
2023-06-26T00:14:21.115Z,23.30
2023-06-26T00:16:49.859Z,23.37
2023-06-26T00:19:16.238Z,23.34
2023-06-26T00:21:46.961Z,23.27
2023-06-26T00:24:13.893Z,23.22
2023-06-26T00:26:39.748Z,23.22
2023-06-26T00:29:06.307Z,23.24
2023-06-26T00:31:32.429Z,23.22
2023-06-26T00:33:58.371Z,23.24
2023-06-26T00:36:26.811Z,23.26
2023-06-26T00:38:56.268Z,23.22
2023-06-26T00:41:22.075Z,23.15
2023-06-26T00:43:47.943Z,23.28
2023-06-26T00:46:14.812Z,23.07
2023-06-26T00:48:45.714Z,23.07
2023-06-26T00:51:12.651Z,23.03
2023-06-26T00:53:38.915Z,23.08
2023-06-26T00:56:06.012Z,23.12
2023-06-26T00:58:31.898Z,23.00
2023-06-26T01:00:58.145Z,22.94
2023-06-26T01:03:25.627Z,22.95
2023-06-26T01:06:01.853Z,22.91
2023-06-26T01:08:28.148Z,22.98
2023-06-26T01:10:54.352Z,22.93
2023-06-26T01:13:20.708Z,22.87
2023-06-26T01:15:47.818Z,22.82
2023-06-26T01:18:15.725Z,23.00
2023-06-26T01:20:42.104Z,22.79
2023-06-26T01:23:26.965Z,22.79
2023-06-26T01:26:21.359Z,22.82
2023-06-26T01:28:49.166Z,22.70
2023-06-26T01:31:15.570Z,22.70
2023-06-26T01:33:42.222Z,22.77
2023-06-26T01:36:08.402Z,22.69
2023-06-26T01:38:37.386Z,22.63
2023-06-26T01:41:05.137Z,22.69
2023-06-26T01:43:49.179Z,22.82
2023-06-26T01:46:22.186Z,22.62
2023-06-26T01:48:59.536Z,22.72
2023-06-26T01:51:30.897Z,22.62
2023-06-26T01:53:59.195Z,22.67
2023-06-26T01:56:25.833Z,22.55
2023-06-26T01:58:55.301Z,22.53
2023-06-26T02:01:22.087Z,22.55
2023-06-26T02:03:49.082Z,22.37
2023-06-26T02:06:15.362Z,22.40
2023-06-26T02:08:41.395Z,22.44
2023-06-26T02:11:07.306Z,22.48
2023-06-26T02:13:33.166Z,22.43
2023-06-26T02:15:59.043Z,22.28
2023-06-26T02:18:24.826Z,22.40
2023-06-26T02:20:50.826Z,22.38
2023-06-26T02:23:16.647Z,22.24
2023-06-26T02:25:42.489Z,22.16
2023-06-26T02:28:08.575Z,22.24
2023-06-26T02:30:34.435Z,22.30
2023-06-26T02:33:00.314Z,22.31
2023-06-26T02:35:26.214Z,22.26
2023-06-26T02:37:52.064Z,22.12
2023-06-26T02:40:17.905Z,22.20
2023-06-26T02:42:43.743Z,22.13
2023-06-26T02:45:10.113Z,22.22
2023-06-26T02:47:39.752Z,22.10
2023-06-26T02:50:07.216Z,21.95
2023-06-26T02:52:33.035Z,22.01
2023-06-26T02:54:58.911Z,22.02
2023-06-26T02:57:24.743Z,21.98
2023-06-26T02:59:50.716Z,21.92
2023-06-26T03:02:16.630Z,22.01
2023-06-26T03:04:43.453Z,21.96
2023-06-26T03:07:09.642Z,21.91
2023-06-26T03:09:35.613Z,21.98
2023-06-26T03:12:01.518Z,22.08
2023-06-26T03:14:27.379Z,21.89
2023-06-26T03:16:56.332Z,21.87
2023-06-26T03:19:22.186Z,21.87
2023-06-26T03:21:48.054Z,21.82
2023-06-26T03:24:13.848Z,21.78
2023-06-26T03:26:39.744Z,21.80
2023-06-26T03:29:05.556Z,21.81
2023-06-26T03:31:31.484Z,21.89
2023-06-26T03:33:57.406Z,21.70
2023-06-26T03:36:23.221Z,21.74
2023-06-26T03:38:49.062Z,21.79
2023-06-26T03:41:14.980Z,21.89
2023-06-26T03:43:40.824Z,21.93
2023-06-26T03:46:06.625Z,21.82
2023-06-26T03:48:32.657Z,21.77
2023-06-26T03:50:58.545Z,21.83
2023-06-26T03:53:24.804Z,21.73
2023-06-26T03:55:50.611Z,21.76
2023-06-26T03:58:16.433Z,21.80
2023-06-26T04:00:42.400Z,21.79
2023-06-26T04:03:09.480Z,21.70
2023-06-26T04:05:36.331Z,21.74
2023-06-26T04:08:02.186Z,21.85
2023-06-26T04:10:28.325Z,21.91
2023-06-26T04:12:54.260Z,21.82
2023-06-26T04:15:20.348Z,21.70
2023-06-26T04:17:46.235Z,21.61
2023-06-26T04:20:12.203Z,21.63
2023-06-26T04:22:38.075Z,21.64
2023-06-26T04:25:04.557Z,21.63
2023-06-26T04:27:35.738Z,21.58
2023-06-26T04:30:02.792Z,21.55
2023-06-26T04:32:28.604Z,21.67
2023-06-26T04:34:54.422Z,21.67
2023-06-26T04:37:20.688Z,21.65
2023-06-26T04:39:46.587Z,21.70
2023-06-26T04:42:12.526Z,21.63
2023-06-26T04:44:38.851Z,21.55
2023-06-26T04:47:04.923Z,21.39
2023-06-26T04:49:30.730Z,21.40
2023-06-26T04:51:57.029Z,21.36
2023-06-26T04:54:23.616Z,21.42
2023-06-26T04:56:49.450Z,21.26
2023-06-26T04:59:15.355Z,21.03
2023-06-26T05:01:41.422Z,21.07
2023-06-26T05:04:07.605Z,20.93
2023-06-26T05:06:33.453Z,21.02
2023-06-26T05:08:59.281Z,21.01
2023-06-26T05:11:25.822Z,20.92
2023-06-26T05:13:51.742Z,21.01
2023-06-26T05:16:17.569Z,21.09
2023-06-26T05:18:43.371Z,21.05
2023-06-26T05:21:09.575Z,20.96
2023-06-26T05:23:35.984Z,20.86
2023-06-26T05:26:03.270Z,20.78
2023-06-26T05:28:31.398Z,20.56
2023-06-26T05:30:58.625Z,20.62
2023-06-26T05:33:26.883Z,20.40
2023-06-26T05:35:53.652Z,20.37
2023-06-26T05:38:20.381Z,20.36
2023-06-26T05:40:46.805Z,20.67
2023-06-26T05:43:13.082Z,20.68
2023-06-26T05:45:38.952Z,20.79
2023-06-26T05:48:05.158Z,20.68
2023-06-26T05:50:31.510Z,20.78
2023-06-26T05:52:57.703Z,20.52
2023-06-26T05:55:24.064Z,20.48
2023-06-26T05:57:51.398Z,20.64
2023-06-26T06:00:17.753Z,20.89
2023-06-26T06:02:43.797Z,20.76
2023-06-26T06:05:10.170Z,20.51
2023-06-26T06:07:36.700Z,20.52
2023-06-26T06:10:03.819Z,20.42
2023-06-26T06:12:30.007Z,20.55
2023-06-26T06:14:56.720Z,20.54
2023-06-26T06:17:23.080Z,20.44
2023-06-26T06:19:49.746Z,20.33
2023-06-26T06:22:16.886Z,20.31
2023-06-26T06:24:43.247Z,20.30
2023-06-26T06:27:09.061Z,20.41
2023-06-26T06:29:34.882Z,20.42
2023-06-26T06:32:01.082Z,20.57
2023-06-26T06:34:26.978Z,20.50
2023-06-26T06:36:52.905Z,20.31
2023-06-26T06:39:18.770Z,20.30
2023-06-26T06:41:44.632Z,20.00
2023-06-26T06:44:10.431Z,20.11
2023-06-26T06:46:36.244Z,20.25
2023-06-26T06:49:02.606Z,20.08
2023-06-26T06:51:28.421Z,20.13
2023-06-26T06:53:54.302Z,20.25
2023-06-26T06:56:20.113Z,20.42
2023-06-26T06:58:47.315Z,20.77
2023-06-26T07:01:13.913Z,20.54
2023-06-26T07:03:40.362Z,20.51
2023-06-26T07:06:06.370Z,20.46
2023-06-26T07:08:32.409Z,20.66
2023-06-26T07:10:58.261Z,20.72
2023-06-26T07:13:24.288Z,20.79
2023-06-26T07:15:50.275Z,20.80
2023-06-26T07:18:16.647Z,21.02
2023-06-26T07:20:42.538Z,21.00
2023-06-26T07:23:08.883Z,21.07
2023-06-26T07:25:35.110Z,21.08
2023-06-26T07:28:01.186Z,21.10
2023-06-26T07:30:27.027Z,21.08
2023-06-26T07:32:52.938Z,21.23
2023-06-26T07:35:18.804Z,20.99
2023-06-26T07:37:44.924Z,20.83
2023-06-26T07:40:11.316Z,20.49
2023-06-26T07:42:37.302Z,20.58
2023-06-26T07:45:10.248Z,20.29
2023-06-26T07:47:37.296Z,20.29
2023-06-26T07:50:03.757Z,20.41
2023-06-26T07:52:30.549Z,20.55
2023-06-26T07:54:57.107Z,20.42
2023-06-26T07:57:23.187Z,20.37
2023-06-26T07:59:49.074Z,20.19
2023-06-26T08:02:14.967Z,20.26
2023-06-26T08:04:40.891Z,20.63
2023-06-26T08:07:06.953Z,20.97
2023-06-26T08:09:33.045Z,20.90
2023-06-26T08:11:59.324Z,20.83
2023-06-26T08:14:25.557Z,20.90
2023-06-26T08:16:51.749Z,20.86
2023-06-26T08:19:17.678Z,21.09
2023-06-26T08:21:47.486Z,20.74
2023-06-26T08:24:13.802Z,20.54
2023-06-26T08:26:40.154Z,20.88
2023-06-26T08:29:11.543Z,20.73
2023-06-26T08:31:39.867Z,20.72
2023-06-26T08:34:06.466Z,20.95
2023-06-26T08:36:32.517Z,21.04
2023-06-26T08:38:58.672Z,21.17
2023-06-26T08:41:25.144Z,21.17
2023-06-26T08:43:52.920Z,21.42
2023-06-26T08:46:19.956Z,21.56
2023-06-26T08:48:56.122Z,21.26
2023-06-26T08:51:26.102Z,21.21
2023-06-26T08:54:02.636Z,21.42
2023-06-26T08:56:35.836Z,21.38
2023-06-26T08:59:01.886Z,21.27
2023-06-26T09:01:28.438Z,21.41
2023-06-26T09:03:54.526Z,21.39
2023-06-26T09:06:20.957Z,21.34
2023-06-26T09:08:47.133Z,21.70
2023-06-26T09:11:13.184Z,21.84
2023-06-26T09:13:40.009Z,21.69
2023-06-26T09:16:09.583Z,21.48
2023-06-26T09:18:35.843Z,21.39
2023-06-26T09:21:08.564Z,21.77
2023-06-26T09:23:35.852Z,22.00
2023-06-26T09:26:06.001Z,22.03
2023-06-26T09:28:35.808Z,21.97
2023-06-26T09:31:08.732Z,21.68
2023-06-26T09:33:36.972Z,21.66
2023-06-26T09:36:10.270Z,21.77
2023-06-26T09:38:36.679Z,21.90
2023-06-26T09:41:04.215Z,21.52
2023-06-26T09:43:31.493Z,21.59
2023-06-26T09:45:57.709Z,21.59
2023-06-26T09:48:23.600Z,21.20
2023-06-26T09:51:05.532Z,21.38
2023-06-26T09:53:36.833Z,21.55
2023-06-26T09:56:06.901Z,22.05
2023-06-26T09:58:33.784Z,22.26
2023-06-26T10:00:59.721Z,21.77
2023-06-26T10:03:25.699Z,21.57
2023-06-26T10:05:53.187Z,21.63
2023-06-26T10:08:19.397Z,21.59
2023-06-26T10:10:48.289Z,21.50
2023-06-26T10:13:22.965Z,21.52
2023-06-26T10:15:51.473Z,21.50
2023-06-26T10:18:18.917Z,21.54
2023-06-26T10:20:51.364Z,21.79
2023-06-26T10:23:22.300Z,22.12
2023-06-26T10:25:52.624Z,22.54
2023-06-26T10:28:21.705Z,22.58
2023-06-26T10:30:49.334Z,22.87
2023-06-26T10:33:15.544Z,22.81
2023-06-26T10:35:44.003Z,22.99
2023-06-26T10:38:09.844Z,23.13
2023-06-26T10:40:47.150Z,22.75
2023-06-26T10:43:14.430Z,22.87
2023-06-26T10:45:45.352Z,22.41
2023-06-26T10:48:14.563Z,22.02
2023-06-26T10:50:40.877Z,21.61
2023-06-26T10:53:21.109Z,22.09
2023-06-26T10:55:58.290Z,22.08
2023-06-26T10:58:34.917Z,22.53
2023-06-26T11:01:16.087Z,22.89
2023-06-26T11:03:45.209Z,23.42
2023-06-26T11:06:13.220Z,23.35
2023-06-26T11:08:47.382Z,23.04
2023-06-26T11:11:13.393Z,22.73
2023-06-26T11:13:40.765Z,22.58
2023-06-26T11:16:06.915Z,22.47
2023-06-26T11:18:33.092Z,23.01
2023-06-26T11:21:06.741Z,23.36
2023-06-26T11:23:34.768Z,23.93
2023-06-26T11:26:21.995Z,23.89
2023-06-26T11:28:52.642Z,24.38
2023-06-26T11:31:32.977Z,24.20
2023-06-26T11:34:04.052Z,23.94
2023-06-26T11:36:31.009Z,24.03
2023-06-26T11:38:58.758Z,23.78
2023-06-26T11:41:27.342Z,23.41
2023-06-26T11:43:53.517Z,23.12
2023-06-26T11:46:21.217Z,23.06
2023-06-26T11:48:47.760Z,23.21
2023-06-26T11:51:17.378Z,23.69
2023-06-26T11:53:45.096Z,24.21
2023-06-26T11:56:15.570Z,24.54
2023-06-26T11:59:03.338Z,24.94
2023-06-26T12:01:35.066Z,24.76
2023-06-26T12:04:03.843Z,23.83
2023-06-26T12:06:32.306Z,23.44
2023-06-26T12:09:05.333Z,23.99
2023-06-26T12:11:32.379Z,24.31
2023-06-26T12:13:59.410Z,24.30
2023-06-26T12:16:25.965Z,24.33
2023-06-26T12:18:58.160Z,24.52
2023-06-26T12:21:42.412Z,24.26
2023-06-26T12:24:10.961Z,24.19
2023-06-26T12:26:37.133Z,23.73
2023-06-26T12:29:03.573Z,23.36
2023-06-26T12:31:29.759Z,23.24
2023-06-26T12:33:55.774Z,23.66
2023-06-26T12:36:21.653Z,24.06
2023-06-26T12:38:49.397Z,24.12
2023-06-26T12:41:16.252Z,24.45
2023-06-26T12:43:42.905Z,24.39
2023-06-26T12:46:09.281Z,23.97
2023-06-26T12:48:46.855Z,23.38
2023-06-26T12:51:16.876Z,23.53
2023-06-26T12:53:43.312Z,23.64
2023-06-26T12:56:10.126Z,23.42
2023-06-26T12:58:37.331Z,23.04
2023-06-26T13:01:04.670Z,22.89
2023-06-26T13:03:31.302Z,22.48
2023-06-26T13:05:57.337Z,22.40
2023-06-26T13:08:23.368Z,22.60
2023-06-26T13:10:49.411Z,22.96
2023-06-26T13:13:15.375Z,22.92
2023-06-26T13:15:41.327Z,23.16
2023-06-26T13:18:07.197Z,23.83
2023-06-26T13:20:33.143Z,24.15
2023-06-26T13:22:58.984Z,24.07
2023-06-26T13:25:24.908Z,24.14
2023-06-26T13:27:50.733Z,24.88
2023-06-26T13:30:18.369Z,25.08
2023-06-26T13:32:44.664Z,24.70
2023-06-26T13:35:10.626Z,24.13
2023-06-26T13:37:37.092Z,24.12
2023-06-26T13:40:03.512Z,23.84
2023-06-26T13:42:29.861Z,23.44
2023-06-26T13:45:04.221Z,23.62
2023-06-26T13:47:34.992Z,23.99
2023-06-26T13:50:01.054Z,24.51
2023-06-26T13:52:26.975Z,24.89
2023-06-26T13:54:52.892Z,24.50
2023-06-26T13:57:22.422Z,24.83
2023-06-26T13:59:48.749Z,24.31
2023-06-26T14:02:14.909Z,23.97
2023-06-26T14:04:41.258Z,24.07
2023-06-26T14:07:07.731Z,23.85
2023-06-26T14:09:33.607Z,23.63
2023-06-26T14:11:59.471Z,23.72
2023-06-26T14:14:25.488Z,24.09
2023-06-26T14:16:51.466Z,24.39
2023-06-26T14:19:19.956Z,24.14
2023-06-26T14:21:45.943Z,24.20
2023-06-26T14:24:11.794Z,24.50
2023-06-26T14:26:39.149Z,24.76
2023-06-26T14:29:04.945Z,24.96
2023-06-26T14:31:31.379Z,25.55
2023-06-26T14:33:59.335Z,25.16
2023-06-26T14:36:25.647Z,24.78
2023-06-26T14:38:51.517Z,24.54
2023-06-26T14:41:17.741Z,23.63
2023-06-26T14:43:45.896Z,23.30
2023-06-26T14:46:13.012Z,23.61
2023-06-26T14:48:39.552Z,23.72
2023-06-26T14:51:05.416Z,23.78
2023-06-26T14:53:31.410Z,23.96
2023-06-26T14:55:57.358Z,24.10
2023-06-26T14:58:23.418Z,23.79
2023-06-26T15:00:49.285Z,23.32
2023-06-26T15:03:15.257Z,23.33
2023-06-26T15:05:41.129Z,23.38
2023-06-26T15:08:06.996Z,23.33
2023-06-26T15:10:34.236Z,23.41
2023-06-26T15:13:00.316Z,23.65
2023-06-26T15:15:26.299Z,23.64
2023-06-26T15:17:52.305Z,23.34
2023-06-26T15:20:18.142Z,23.27
2023-06-26T15:22:44.067Z,23.97
2023-06-26T15:25:11.071Z,24.10
2023-06-26T15:27:36.925Z,24.18
2023-06-26T15:30:03.407Z,23.80
2023-06-26T15:32:29.356Z,23.79
2023-06-26T15:34:55.268Z,23.24
2023-06-26T15:37:21.149Z,23.04
2023-06-26T15:39:47.001Z,22.79
2023-06-26T15:42:12.862Z,23.07
2023-06-26T15:44:38.662Z,22.94
2023-06-26T15:47:04.937Z,22.91
2023-06-26T15:49:31.570Z,22.86
2023-06-26T15:51:57.462Z,22.45
2023-06-26T15:54:23.332Z,22.52
2023-06-26T15:56:49.206Z,22.17
2023-06-26T15:59:18.863Z,22.19
2023-06-26T16:01:46.217Z,22.11
2023-06-26T16:04:12.858Z,22.35
2023-06-26T16:06:38.839Z,22.32
2023-06-26T16:09:04.758Z,22.43
2023-06-26T16:11:30.652Z,22.09
2023-06-26T16:13:58.289Z,22.11
2023-06-26T16:16:24.168Z,22.09
2023-06-26T16:18:50.127Z,22.03
2023-06-26T16:21:16.443Z,21.93
2023-06-26T16:23:42.314Z,22.01
2023-06-26T16:26:08.339Z,22.26
2023-06-26T16:28:34.231Z,22.42
2023-06-26T16:31:00.227Z,22.44
2023-06-26T16:33:26.134Z,22.09
2023-06-26T16:35:52.102Z,22.18
2023-06-26T16:38:18.012Z,22.25
2023-06-26T16:40:43.866Z,22.29
2023-06-26T16:43:10.127Z,22.38
2023-06-26T16:45:35.927Z,22.16
2023-06-26T16:48:01.853Z,21.88
2023-06-26T16:50:27.921Z,22.00
2023-06-26T16:52:53.771Z,21.67
2023-06-26T16:55:19.672Z,21.51
2023-06-26T16:57:45.569Z,21.31
2023-06-26T17:00:11.894Z,21.38
2023-06-26T17:02:38.233Z,21.22
2023-06-26T17:05:04.463Z,21.12
2023-06-26T17:07:30.435Z,21.11
2023-06-26T17:09:56.708Z,21.05
2023-06-26T17:12:22.997Z,21.18
2023-06-26T17:14:48.894Z,20.81
2023-06-26T17:17:17.725Z,20.74
2023-06-26T17:19:44.913Z,20.77
2023-06-26T17:22:10.808Z,20.88
2023-06-26T17:24:36.677Z,20.85
2023-06-26T17:27:14.588Z,20.64
2023-06-26T17:29:41.448Z,21.03
2023-06-26T17:32:08.292Z,21.08
2023-06-26T17:34:35.824Z,21.09
2023-06-26T17:37:04.499Z,21.27
2023-06-26T17:39:30.987Z,21.05
2023-06-26T17:41:56.920Z,20.94
2023-06-26T17:44:27.794Z,20.88
2023-06-26T17:46:54.378Z,20.90
2023-06-26T17:49:22.495Z,20.95
2023-06-26T17:51:49.002Z,21.03
2023-06-26T17:54:15.543Z,20.88
2023-06-26T17:56:43.258Z,20.95
2023-06-26T17:59:09.271Z,20.70
2023-06-26T18:01:35.204Z,20.67
2023-06-26T18:04:01.199Z,20.65
2023-06-26T18:06:27.193Z,20.73
2023-06-26T18:08:54.181Z,20.75
2023-06-26T18:11:20.098Z,20.62
2023-06-26T18:13:46.112Z,20.53
2023-06-26T18:16:12.115Z,20.67
2023-06-26T18:18:41.370Z,20.68
2023-06-26T18:21:07.565Z,20.68
2023-06-26T18:23:33.866Z,20.86
2023-06-26T18:26:00.800Z,20.64
2023-06-26T18:28:31.647Z,20.56
2023-06-26T18:30:57.468Z,20.24
2023-06-26T18:33:25.950Z,20.05
2023-06-26T18:35:51.811Z,20.07
2023-06-26T18:38:17.719Z,20.17
2023-06-26T18:40:43.599Z,20.13
2023-06-26T18:43:09.545Z,20.04
2023-06-26T18:45:35.615Z,20.04
2023-06-26T18:48:01.746Z,20.23
2023-06-26T18:50:28.818Z,20.43
2023-06-26T18:52:55.016Z,20.58
2023-06-26T18:55:21.177Z,20.31
2023-06-26T18:57:48.264Z,20.04
2023-06-26T19:00:16.020Z,20.39
2023-06-26T19:02:42.060Z,20.43
2023-06-26T19:05:08.401Z,20.30
2023-06-26T19:07:34.696Z,20.29
2023-06-26T19:10:00.567Z,20.32
2023-06-26T19:12:26.523Z,20.16
2023-06-26T19:14:52.488Z,20.23
2023-06-26T19:17:18.585Z,20.06
2023-06-26T19:19:44.761Z,19.85
2023-06-26T19:22:10.729Z,19.53
2023-06-26T19:24:36.610Z,19.33
2023-06-26T19:27:02.683Z,19.52
2023-06-26T19:29:28.589Z,19.45
2023-06-26T19:31:55.363Z,19.24
2023-06-26T19:34:21.379Z,19.37
2023-06-26T19:36:47.263Z,19.15
2023-06-26T19:39:13.318Z,19.01
2023-06-26T19:41:39.222Z,18.98
2023-06-26T19:44:05.015Z,19.06
2023-06-26T19:46:30.863Z,19.05
2023-06-26T19:48:57.445Z,18.78
2023-06-26T19:51:23.332Z,18.68
2023-06-26T19:53:52.149Z,18.71
2023-06-26T19:56:18.275Z,18.74
2023-06-26T19:58:44.067Z,18.80
2023-06-26T20:01:09.988Z,18.88
2023-06-26T20:03:36.150Z,18.75
2023-06-26T20:06:02.037Z,18.73
2023-06-26T20:08:27.938Z,18.56
2023-06-26T20:10:53.833Z,18.50
2023-06-26T20:13:20.054Z,18.55
2023-06-26T20:15:45.945Z,18.39
2023-06-26T20:18:12.186Z,18.44
2023-06-26T20:20:38.093Z,18.54
2023-06-26T20:23:04.064Z,18.50
2023-06-26T20:25:30.594Z,18.37
2023-06-26T20:27:56.488Z,18.43
2023-06-26T20:30:22.543Z,18.40
2023-06-26T20:32:48.482Z,18.29
2023-06-26T20:35:14.316Z,18.09
2023-06-26T20:37:40.583Z,18.18
2023-06-26T20:40:07.189Z,18.07
2023-06-26T20:42:33.316Z,18.09
2023-06-26T20:44:59.523Z,18.12
2023-06-26T20:47:41.487Z,18.08
2023-06-26T20:50:09.914Z,17.98
2023-06-26T20:52:39.245Z,17.83
2023-06-26T20:55:05.798Z,17.73
2023-06-26T20:57:31.631Z,17.75
2023-06-26T20:59:57.963Z,17.75
2023-06-26T21:02:23.993Z,17.69
2023-06-26T21:04:49.913Z,17.67
2023-06-26T21:07:15.915Z,17.54
2023-06-26T21:09:41.939Z,17.50
2023-06-26T21:12:08.398Z,17.54
2023-06-26T21:14:34.272Z,17.45
2023-06-26T21:17:00.628Z,17.54
2023-06-26T21:19:26.576Z,17.42
2023-06-26T21:21:52.439Z,17.42
2023-06-26T21:24:18.545Z,17.45
2023-06-26T21:26:44.472Z,17.32
2023-06-26T21:29:10.587Z,17.37
2023-06-26T21:31:36.649Z,17.35
2023-06-26T21:34:02.616Z,17.24
2023-06-26T21:36:28.483Z,17.06
2023-06-26T21:38:54.377Z,17.14
2023-06-26T21:41:20.302Z,17.27
2023-06-26T21:43:46.097Z,17.18
2023-06-26T21:46:11.972Z,17.13
2023-06-26T21:48:39.040Z,17.02
2023-06-26T21:51:05.304Z,17.14
2023-06-26T21:53:31.192Z,17.09
2023-06-26T21:55:57.152Z,17.14
2023-06-26T21:58:23.015Z,17.04
2023-06-26T22:00:48.850Z,17.13
2023-06-26T22:03:14.700Z,17.14
2023-06-26T22:05:40.914Z,17.02
2023-06-26T22:08:07.799Z,17.00
2023-06-26T22:10:34.170Z,17.00
2023-06-26T22:13:00.437Z,17.09
2023-06-26T22:15:26.407Z,17.05
2023-06-26T22:17:54.269Z,16.91
2023-06-26T22:20:20.982Z,16.91
2023-06-26T22:22:47.919Z,16.97
2023-06-26T22:25:14.541Z,17.01
2023-06-26T22:27:48.546Z,16.81
2023-06-26T22:30:15.663Z,16.83
2023-06-26T22:32:42.553Z,16.88
2023-06-26T22:35:08.885Z,16.82
2023-06-26T22:37:34.959Z,16.80
2023-06-26T22:40:00.840Z,16.82
2023-06-26T22:42:27.055Z,16.81
2023-06-26T22:44:52.906Z,16.86
2023-06-26T22:47:19.347Z,16.78
2023-06-26T22:49:48.874Z,16.91
2023-06-26T22:52:15.957Z,16.72
2023-06-26T22:54:41.817Z,16.88
2023-06-26T22:57:07.763Z,16.80
2023-06-26T22:59:33.581Z,16.65
2023-06-26T23:01:59.476Z,16.63
2023-06-26T23:04:25.339Z,16.72
2023-06-26T23:06:57.331Z,16.76
2023-06-26T23:09:23.739Z,16.72
2023-06-26T23:11:49.851Z,16.66
2023-06-26T23:14:15.798Z,16.65
2023-06-26T23:16:42.939Z,16.62
2023-06-26T23:19:09.709Z,16.47
2023-06-26T23:21:36.325Z,16.39
2023-06-26T23:24:03.112Z,16.42
2023-06-26T23:26:31.770Z,16.58
2023-06-26T23:28:58.339Z,16.45
2023-06-26T23:31:25.796Z,16.48
2023-06-26T23:33:52.562Z,16.38
2023-06-26T23:36:18.601Z,16.36
2023-06-26T23:38:44.619Z,16.27
2023-06-26T23:41:11.162Z,16.41
2023-06-26T23:43:38.014Z,16.36
2023-06-26T23:46:07.226Z,16.26
2023-06-26T23:48:33.246Z,16.33
2023-06-26T23:50:59.046Z,16.16
2023-06-26T23:53:25.017Z,16.16
2023-06-26T23:55:50.892Z,16.24
2023-06-26T23:58:17.689Z,16.23
